Tiempo atmosférico en la estación meteorológica de Huesca Aeropuerto, Huesca (541 m.)



Fecha
DESCASC
Temp. máxima en grados centígrados (hora)
DESCASC
Temp. mínima en grados centígrados (hora)
DESCASC
Temp. media en grados centígrados
DESCASC
Racha de viento máxima en m/sg (hora)
DESCASC
Velocidad máxima media en intervalos de 10 minutos(hora)
DESCASC
Precipitaciones diarias en mm
DESCASC
Precipitaciones de 00:00 a 06:00 en mm
DESCASC
Precipitaciones de 06:00 a 12:00 en mm
DESCASC
Precipitaciones de 12:00 a 18:00 en mm
DESCASC
Precipitaciones de 18:00 a 24:00 en mm
DESCASC
22-11-2020 12 (14:10) 1.5 (06:40) 6.8 4.17 (12:40) 2.78 (02:40) 0 0 0 0 0
21-11-2020 11.8 (14:30) 0.7 (05:00) 6.3 5.28 (11:30) 3.61 (11:30) 0 0 0 0 0
20-11-2020 16.1 (13:50) 4.4 (07:40) 10.3 6.67 (15:10) 3.06 (19:00) 0 0 0 0 0
19-11-2020 18.8 (15:40) 6.8 (00:00) 12.8 9.17 (16:00) 3.61 (15:40) 0 0 0 0 0
18-11-2020 16.7 (14:20) 7.5 (00:00) 12.1 3.89 (04:10) 3.06 (03:50) 0 0 0 0 0
17-11-2020 15.7 (14:40) 5.4 (00:00) 10.5 3.61 (12:40) 2.22 (22:30) 0 0 0 0 0
16-11-2020 17.3 (13:30) 6.2 (00:00) 11.7 8.61 (15:30) 3.33 (16:00) 0.2 0.2 0 0 0
15-11-2020 17.1 (13:00) 8.6 (00:00) 12.9 5.56 (12:40) 2.22 (13:10) 0 0 0 0 0
14-11-2020 15.5 (14:00) 5.2 (00:00) 10.3 5.56 (11:40) 3.61 (11:40) 0 0 0 0 0
13-11-2020 14.1 (14:40) 5.6 (00:00) 9.9 5.56 (10:30) 3.33 (10:30) 0 0 0 0 0
12-11-2020 11.2 (16:00) 5.8 (00:00) 8.5 5.28 (20:40) 3.06 (20:40) 0 0 0 0 0
11-11-2020 14.2 (15:20) 4.2 (00:00) 9.2 3.33 (22:50) 2.22 (00:30) 0.2 0 0.2 0 0
10-11-2020 13.7 (16:00) 5.7 (00:00) 9.7 5.83 (11:10) 3.61 (10:40) 0 0 0 0 0
09-11-2020 17.7 (13:10) 7.5 (00:00) 12.6 5.83 (13:40) 2.78 (06:10) 0 0 0 0 0
08-11-2020 16.4 (14:10) 8.6 (00:00) 12.5 3.89 (16:10) 2.5 (02:10) 0 0 0 0 0
07-11-2020 15.4 (00:40) 11.1 (00:00) 13.3 15.28 (07:10) 8.89 (07:20) 24 0.2 23.2 0.4 0.2
06-11-2020 16.6 (15:10) 11.9 (00:00) 14.3 12.78 (15:00) 8.33 (23:59) 0 0 0 0 0
05-11-2020 15.8 (14:20) 6.9 (00:00) 11.4 9.72 (23:40) 6.11 (23:59) 0.4 0 0 0 0.4
04-11-2020 9.5 (00:00) 6.1 (00:00) 7.8 5.56 (09:10) 4.17 (09:10) 2.2 0.2 2 0 0
03-11-2020 14.4 (00:40) 9.4 (00:00) 11.9 4.44 (13:20) 2.22 (16:00) 0.4 0 0 0.4 0
02-11-2020 22.9 (14:10) 11.3 (00:00) 17.1 4.17 (16:40) 2.78 (01:00) 0 0 0 0 0
01-11-2020 22.7 (15:10) 9.5 (00:00) 16.1 6.11 (15:40) 3.33 (22:20) 0 0 0 0 0
31-10-2020 21.6 (14:30) 9.1 (00:00) 15.4 5.28 (13:30) 2.5 (13:00) 0 0 0 0 0
30-10-2020 20.6 (15:50) 7.6 (00:00) 14.1 3.61 (14:20) 1.94 (02:40) 0 0 0 0 0
29-10-2020 19.4 (15:40) 7.5 (00:00) 13.4 5.28 (14:50) 2.22 (22:20) 0 0 0 0 0
28-10-2020 19 (14:50) 7.8 (00:00) 13.4 6.11 (14:50) 2.5 (12:20) 0 0 0 0 0

Gráficas

Temp. máximas Temp. mínimas Temp. medias Precipitaciones Rachas de viento máximas Velocidades máximas media en intervalos de 10 minutos

Datos horarios

Fecha y hora oficial Temperatura (ºC) Velocidad del viento (km/h) Dirección del viento Racha (km/h) Dirección de racha Precipitación (mm) Presión (hPa) Tendencia (hPa) Humedad (%)
2020-11-26 23:00:00 11.1 15 Este 28 Este 0 951.4 0.5 79
2020-11-26 22:00:00 11.2 16 Este 27 Este 0 951.3 0.5 80
2020-11-26 21:00:00 11.6 17 Este 31 Este 0 951.4 0.2 79
2020-11-26 20:00:00 12.1 21 Este 33 Este 0 950.9 -0.1 79
2020-11-26 19:00:00 12 18 Este 31 Este 0 950.8 0 78
2020-11-26 18:00:00 11.5 17 Este 28 Este 0 951.2 0.3 81
2020-11-26 17:00:00 11.7 14 Este 24 Nordeste 0 951 0 83
2020-11-26 16:00:00 11.4 12 Este 24 Este 0.2 950.8 -0.8 86
2020-11-26 15:00:00 12.7 15 Este 27 Este 0 950.9 -1.1 79
2020-11-26 14:00:00 13.2 17 Este 32 Sudeste 0 951 -1.1 71
2020-11-26 13:00:00 12.7 18 Este 31 Este 0 951.6 -0.1 72
2020-11-26 12:00:00 12.7 19 Este 30 Este 0 952 -- 72
2020-11-26 11:00:00 11 13 Este 24 Este 0 952.1 -- 79
2020-11-26 10:00:00 9.6 14 Este 28 Este 0 951.7 -- 83
2020-11-26 09:00:00 8.7 13 Este 27 Este 0.6 951.5 -- 91
2020-11-26 08:00:00 8.9 16 Este 33 Sudeste 0 951.3 -- 89
2020-11-26 07:00:00 9.1 11 Este 22 Este 0.4 951 -- 88
2020-11-26 06:00:00 10.3 13 Este 24 Este 0 950.7 -- 75
2020-11-26 05:00:00 9.9 14 Este 22 Este 0 951 -- 79
2020-11-26 04:00:00 9.5 14 Este 25 Este 0 951.2 -- 81
2020-11-26 03:00:00 8.5 11 Este 19 Este 0 951.4 -- 86
2020-11-26 02:00:00 8.8 13 Este 21 Este 0 951.3 -- 84
2020-11-26 01:00:00 9.4 14 Este 22 Este 0 951.7 -- 82
2020-11-26 00:00:00 8.7 13 Este 21 Este 0 951.7 -- 84
2020-11-25 23:00:00 9.2 14 Este 23 Este 0 951.8 -- 82
2020-11-25 22:00:00 9.7 15 Este 26 Sudeste 0 951.4 -- 80
2020-11-25 21:00:00 10.1 15 Este 25 Este 0 951.2 -- 82
2020-11-25 20:00:00 9.9 14 Este 21 Este 0 951.2 -- 84
2020-11-25 19:00:00 10 13 Este 19 Sudeste 0 950.9 -- 83
2020-11-25 18:00:00 10.3 10 Sudeste 15 Sudeste 0 950.7 -- 79
2020-11-25 17:00:00 11 6 Sudeste 16 Sur 0 950.7 -- 69
2020-11-25 16:00:00 12.3 10 Sudeste 21 Este 0 950.4 -- 64
2020-11-25 15:00:00 12.8 13 Sudeste 24 Sudeste 0 950.8 -- 60
2020-11-25 14:00:00 12.8 14 Sudeste 21 Sudeste 0 951.4 -- 60
2020-11-25 13:00:00 11.7 13 Sudeste -- -- -- 952 -- 64
2020-11-25 12:00:00 11.3 12 Este 22 Sudeste 0 952.7 -- 66
2020-11-25 11:00:00 9.9 10 Este 17 Este 0 952.9 -- 73
2020-11-25 10:00:00 8.5 6 Sudeste 14 Este 0 953.4 -- 80
2020-11-25 09:00:00 7.9 8 Este 17 Este 0 953 -- 81
2020-11-25 08:00:00 7.1 8 Este 15 Nordeste 0 953 -- 84
2020-11-25 07:00:00 6.6 9 Nordeste 18 Este 0 952.7 -- 85
2020-11-25 06:00:00 6 11 Este 23 Este 0 952.5 -- 85
2020-11-25 05:00:00 5.6 14 Este 23 Este 0 952.5 -- 86
2020-11-25 04:00:00 5.5 9 Este 14 Nordeste 0 952.9 -- 90
2020-11-25 03:00:00 6.4 7 Este 14 Nordeste 0 953.3 -- 88
2020-11-25 02:00:00 6.5 6 Este 13 Nordeste 0 953.6 -- 91
2020-11-25 01:00:00 6 8 Este 14 Este 0 954.2 -- 93
2020-11-25 00:00:00 5.8 9 Este 14 Este 0 954.5 -- 95
2020-11-24 23:00:00 6.1 9 Este 15 Este 0 954.5 -- 92
2020-11-24 22:00:00 7 9 Este 21 Este 0 954.7 -- 88
2020-11-24 21:00:00 6.5 10 Este 17 Este 0 954.9 -- 93
2020-11-24 20:00:00 6.5 10 Este 17 Este 0 955 -- 91
2020-11-24 19:00:00 7.1 13 Este 19 Este 0 954.8 -- 89
2020-11-24 18:00:00 8.1 10 Este 14 Este 0 954.8 -- 80
2020-11-24 17:00:00 10.2 10 Sudeste 18 Este 0 954.9 -- 64
2020-11-24 16:00:00 11.4 11 Sudeste 21 Sudeste 0 955 -- 51
2020-11-24 15:00:00 12.3 12 Sudeste 20 Sudeste 0 955.5 -- 50
2020-11-24 14:00:00 12.6 12 Sudeste 20 Sudeste 0 956.5 -- 50
2020-11-24 13:00:00 12 9 Sudeste 15 Sudeste 0 957.3 -- 56
2020-11-24 12:00:00 10.7 7 Sudeste 15 Sudeste 0 958.3 -- 62
2020-11-24 11:00:00 8.1 8 Sudeste 15 Sudeste 0 958.9 -- 74
2020-11-24 10:00:00 5.1 8 Este 12 Este 0 958.7 -- 86
2020-11-24 09:00:00 3.6 7 Este 13 Este 0 958.6 -- 87
2020-11-24 08:00:00 3.3 7 Este 10 Nordeste 0 958.6 -- 89
2020-11-24 07:00:00 3.4 3 Nordeste 11 Este 0 958.8 -- 87
2020-11-24 06:00:00 3.6 8 Nordeste 11 Nordeste 0 958.5 -- 88
2020-11-24 05:00:00 2.6 4 Nordeste 6 Nordeste 0 959 -- 93
2020-11-24 04:00:00 3 4 Sudeste 7 Este 0 959.3 -- 90
2020-11-24 03:00:00 4.2 5 Este 10 Nordeste 0 959.5 -- 86
2020-11-24 02:00:00 4.3 7 Nordeste 10 Nordeste 0 960 -- 87
2020-11-24 01:00:00 4.2 6 Este 8 Este 0 960.6 -- 86
2020-11-24 00:00:00 4.3 6 Nordeste 8 Nordeste 0 960.9 -- 88
2020-11-23 23:00:00 4.4 5 Este 8 Nordeste 0 961.1 -- 87
2020-11-23 22:00:00 4.8 4 Nordeste 8 Nordeste 0 961.4 -- 85
2020-11-23 21:00:00 4.4 4 Nordeste 6 Este 0 961.3 -- 85
2020-11-23 20:00:00 5 0 Calma 4 Nordeste 0 961.4 -- 80
2020-11-23 19:00:00 5.9 0 Calma 4 Sudoeste 0 961.1 -- 76
2020-11-23 18:00:00 7.3 2 Oeste 5 Oeste 0 961.1 -- 71
2020-11-23 17:00:00 9.6 0 Calma 8 Oeste 0 960.9 -- 63
2020-11-23 16:00:00 10.5 4 Sudoeste 9 Sur 0 961 -- 57
2020-11-23 15:00:00 11.1 4 Oeste 10 Oeste 0 961.3 -- 56
2020-11-23 14:00:00 11.4 5 Sudoeste 12 Sudoeste 0 961.8 -- 59
2020-11-23 13:00:00 10.6 4 Sudoeste 11 Sudoeste 0 962.5 -- 64
2020-11-23 12:00:00 9.4 3 Sudoeste 12 Sudeste 0 963.3 -- 63
2020-11-23 11:00:00 7.3 8 Este 14 Este 0 963.5 -- 77
2020-11-23 10:00:00 4.8 9 Este 14 Este 0 963.3 -- 85
2020-11-23 09:00:00 2.7 9 Este 11 Este 0 963 -- 86
2020-11-23 08:00:00 1.4 8 Este 10 Este 0 962.6 -- 90
2020-11-23 07:00:00 1.5 6 Este 9 Este 0 962.3 -- 88
2020-11-23 06:00:00 1.7 6 Este 8 Este 0 962.1 -- 89
2020-11-23 05:00:00 2.2 0 Calma 4 Este 0 961.9 -- 85
2020-11-23 04:00:00 2.3 3 Este 4 Sudeste 0 962 -- 85
2020-11-23 03:00:00 3.1 2 Oeste 4 Noroeste 0 961.9 -- 81
2020-11-23 02:00:00 3.4 2 Oeste 4 Oeste 0 962.1 -- 79
2020-11-23 01:00:00 4.6 3 Noroeste 6 Noroeste 0 962.2 -- 73
2020-11-23 00:00:00 4.8 3 Noroeste 6 Oeste 0 962.2 -- 74
2020-11-22 23:00:00 3.6 2 Sudoeste 3 Oeste 0 962.3 -- 80
2020-11-22 22:00:00 3.7 0 Calma 5 Nordeste 0 962.2 -- 81
2020-11-22 21:00:00 4.1 2 Norte 4 Norte 0 962.2 -- 76
2020-11-22 20:00:00 5.8 3 Noroeste 6 Oeste 0 962 -- 69
2020-11-22 19:00:00 5.9 3 Sudoeste 6 Sudoeste 0 961.7 -- 66
2020-11-22 18:00:00 7.1 2 Oeste 5 Oeste 0 961.3 -- 60
2020-11-22 17:00:00 9.4 2 Oeste 8 Oeste 0 960.9 -- 54
2020-11-22 16:00:00 10.6 4 Oeste 9 Oeste 0 961 -- 49
2020-11-22 15:00:00 11 5 Oeste 13 Sudoeste 0 961.2 -- 50
2020-11-22 14:00:00 11.9 5 Sudoeste 13 Sudoeste 0 961.6 -- 51
2020-11-22 13:00:00 11 6 Sudoeste 15 Sur 0 962.2 -- 57
2020-11-22 12:00:00 10 5 Sur 9 Sur 0 962.8 -- 61
2020-11-22 11:00:00 7.6 4 Noroeste 8 Este 0 963.1 -- 66
2020-11-22 10:00:00 5.8 5 Este 10 Sudeste 0 963.1 -- 68
2020-11-22 09:00:00 3.9 8 Este 10 Este 0 962.6 -- 71
2020-11-22 08:00:00 2.6 6 Este 10 Nordeste 0 962.5 -- 74
2020-11-22 07:00:00 2 8 Este 9 Este 0 962.6 -- 78
2020-11-22 06:00:00 2.1 3 Este 9 Este 0 962.4 -- 78
2020-11-22 05:00:00 3 5 Nordeste 11 Este 0 962.2 -- 75
2020-11-22 04:00:00 3.4 9 Este 12 Este 0 962.4 -- 76
2020-11-22 03:00:00 3.1 9 Este 13 Este 0 962.5 -- 78
2020-11-22 02:00:00 3.2 7 Este 12 Este 0 962.7 -- 78
2020-11-22 01:00:00 3.6 9 Este 12 Este 0 962.9 -- 78
2020-11-22 00:00:00 4.3 4 Norte 15 Este 0 963.5 -- 76
2020-11-21 23:00:00 4.4 10 Este 14 Este 0 963.3 -- 76
2020-11-21 22:00:00 4.3 8 Este 10 Este 0 963.6 -- 77
2020-11-21 21:00:00 4 6 Este 11 Este 0 963.3 -- 79
2020-11-21 20:00:00 5.8 8 Este 13 Nordeste 0 963 -- 73
2020-11-21 19:00:00 6.5 9 Nordeste 12 Nordeste 0 963.1 -- 70
2020-11-21 18:00:00 6.8 6 Sudeste 9 Sudeste 0 963 -- 68
2020-11-21 17:00:00 9.3 5 Sudoeste 11 Oeste 0 962.9 -- 60
2020-11-21 16:00:00 10.5 5 Sur 10 Sudeste 0 962.6 -- 55
2020-11-21 15:00:00 11.1 4 Sur 13 Sur 0 962.8 -- 49
2020-11-21 14:00:00 11.2 6 Sudeste 16 Sudeste 0 963.1 -- 46
2020-11-21 13:00:00 9.8 10 Este 17 Este 0 963.7 -- 54
2020-11-21 12:00:00 8.8 12 Sudeste 19 Sudeste 0 963.9 -- 56
2020-11-21 11:00:00 6.4 10 Este 17 Este 0 963.8 -- 64
2020-11-21 10:00:00 4 10 Este 17 Este 0 963.6 -- 78
2020-11-21 09:00:00 2 7 Sudeste 10 Este 0 963 -- 84
2020-11-21 08:00:00 1.8 2 Oeste 14 Nordeste 0 962.4 -- 81
2020-11-21 07:00:00 1.3 10 Este 16 Este 0 962.1 -- 82
2020-11-21 06:00:00 1.1 13 Este 16 Este 0 961.8 -- 80
2020-11-21 05:00:00 0.8 6 Nordeste 10 Este 0 961.5 -- 77
2020-11-21 04:00:00 1.4 0 Calma 7 Norte 0 961.6 -- 72
2020-11-21 03:00:00 3.1 3 Noroeste 13 Noroeste 0 961.7 -- 68
2020-11-21 02:00:00 3.6 8 Noroeste 12 Noroeste 0 961.6 -- 66
2020-11-21 01:00:00 4.5 3 Oeste 12 Noroeste 0 961.8 -- 63
2020-11-21 00:00:00 5.1 6 Noroeste 11 Noroeste 0 961.9 -- 64
2020-11-20 23:00:00 5.4 8 Noroeste 11 Noroeste 0 961.6 -- 62
2020-11-20 22:00:00 5.5 6 Noroeste 13 Oeste 0 961.6 -- 62
2020-11-20 21:00:00 6 6 Noroeste 14 Oeste 0 961.4 -- 59
2020-11-20 20:00:00 6.9 7 Oeste 17 Oeste 0 961.1 -- 55
2020-11-20 19:00:00 8.4 11 Oeste 18 Oeste 0 960.7 -- 50
2020-11-20 18:00:00 10.2 5 Oeste 15 Oeste 0 960.6 -- 46
2020-11-20 17:00:00 13.1 6 Oeste 17 Oeste 0 960.7 -- 37
2020-11-20 16:00:00 14.7 8 Oeste 24 Sudoeste 0 960.9 -- 32
2020-11-20 15:00:00 15.4 8 Oeste 21 Oeste 0 961.3 -- 33
2020-11-20 14:00:00 16 9 Oeste 24 Oeste 0 961.6 -- 29
2020-11-20 13:00:00 15.5 9 Oeste 19 Oeste 0 962.6 -- 27
2020-11-20 12:00:00 13.8 7 Oeste 22 Sudoeste 0 963.4 -- 34
2020-11-20 11:00:00 10.3 4 Sudoeste 13 Sudoeste 0 963.6 -- 52
2020-11-20 10:00:00 6.6 6 Oeste 13 Oeste 0 963.6 -- 62
2020-11-20 09:00:00 5.2 5 Oeste 12 Oeste 0 963.3 -- 65
2020-11-20 08:00:00 4.4 6 Oeste 14 Oeste 0 963 -- 70
2020-11-20 07:00:00 4.7 6 Oeste 17 Noroeste 0 962.6 -- 74
2020-11-20 06:00:00 4.9 7 Noroeste 16 Noroeste 0 962.7 -- 73
2020-11-20 05:00:00 4.8 5 Oeste 16 Noroeste 0 963.2 -- 73
2020-11-20 04:00:00 5 7 Oeste 15 Oeste 0 963.5 -- 76
2020-11-20 03:00:00 5.5 6 Oeste 15 Oeste 0 963.7 -- 73
2020-11-20 02:00:00 5.8 5 Sudoeste 10 Sudoeste 0 964 -- 75
2020-11-20 01:00:00 6.6 6 Oeste 14 Oeste 0 964.1 -- 68
2020-11-20 00:00:00 7.2 6 Oeste 19 Noroeste 0 964.2 -- 67
2020-11-19 23:00:00 7.8 7 Oeste 24 Oeste 0 964.4 -- 70
2020-11-19 22:00:00 9.5 11 Oeste 23 Noroeste 0 963.8 -- 64
2020-11-19 21:00:00 10.5 6 Noroeste 22 Noroeste 0 963.8 -- 64
2020-11-19 20:00:00 11.2 5 Oeste 18 Oeste 0 963.9 -- 65
2020-11-19 19:00:00 12.3 6 Oeste 22 Sudoeste 0 963.7 -- 63
2020-11-19 18:00:00 14.1 9 Noroeste 21 Oeste 0 963.4 -- 61
2020-11-19 17:00:00 16.7 8 Noroeste 28 Noroeste 0 963.1 -- 55
2020-11-19 16:00:00 18.5 12 Oeste 33 Noroeste 0 962.7 -- 53
2020-11-19 15:00:00 17.9 7 Oeste 14 Sudoeste 0 963 -- 62
2020-11-19 14:00:00 16.3 4 Noroeste 10 Sur 0 963.9 -- 67
2020-11-19 13:00:00 15 5 Sudoeste 12 Sur 0 964.7 -- 72
2020-11-19 12:00:00 14.1 5 Sudoeste 10 Sudoeste 0 965.5 -- 77
2020-11-19 11:00:00 11.4 4 Este 8 Este 0 965.9 -- 88
2020-11-19 10:00:00 8.3 3 Sudoeste 7 Sudoeste 0 965.7 -- 98
2020-11-19 09:00:00 7.3 3 Sur 5 Oeste 0 965 -- 99
2020-11-19 08:00:00 7 3 Sudoeste 7 Sudoeste 0 964.5 -- 96
2020-11-19 07:00:00 7.8 0 Calma 8 Noroeste 0 963.9 -- 95
2020-11-19 06:00:00 8.4 4 Oeste 7 Noroeste 0 963.6 -- 94
2020-11-19 05:00:00 9 5 Noroeste 8 Noroeste 0 963.5 -- 92
2020-11-19 04:00:00 8.3 4 Noroeste 7 Oeste 0 963.6 -- 96
2020-11-19 03:00:00 8.8 4 Noroeste 6 Noroeste 0 963.3 -- 94
2020-11-19 02:00:00 8.3 2 Norte 5 Noroeste 0 963.5 -- 94
2020-11-19 01:00:00 8.5 3 Nordeste 8 Nordeste 0 963.7 -- 92
2020-11-19 00:00:00 8.9 5 Nordeste 8 Nordeste 0 963.6 -- 91
2020-11-18 23:00:00 9.3 5 Nordeste 8 Nordeste 0 963.5 -- 91
2020-11-18 22:00:00 9.8 5 Nordeste 9 Nordeste 0 963 -- 89
2020-11-18 21:00:00 10.3 6 Nordeste 10 Nordeste 0 962.6 -- 87
2020-11-18 20:00:00 10.3 7 Nordeste 10 Este 0 962.2 -- 86
2020-11-18 19:00:00 10.5 6 Este 8 Sudeste 0 962 -- 80
2020-11-18 18:00:00 12.5 5 Sur 6 Sudeste 0 961.4 -- 73
2020-11-18 17:00:00 14.6 3 Oeste 8 Oeste 0 961.1 -- 63
2020-11-18 16:00:00 15.7 4 Sudoeste 12 Oeste 0 961.2 -- 58
2020-11-18 15:00:00 16.2 5 Sudoeste 12 Oeste 0 961.3 -- 60
2020-11-18 14:00:00 16.3 4 Sudoeste 14 Oeste 0 961.6 -- 63
2020-11-18 13:00:00 15.6 7 Sudoeste 13 Sur 0 962 -- 68
2020-11-18 12:00:00 15.2 4 Sur 9 Sur 0 962.4 -- 66
2020-11-18 11:00:00 13.2 5 Sur 9 Sudeste 0 962.7 -- 70
2020-11-18 10:00:00 10.9 6 Sudeste 10 Sudeste 0 962.7 -- 77
2020-11-18 09:00:00 8.9 7 Este 12 Este 0 962.4 -- 84
2020-11-18 08:00:00 7.5 8 Este 12 Este 0 961.9 -- 88
2020-11-18 07:00:00 8.2 8 Este 11 Este 0 961.7 -- 86
2020-11-18 06:00:00 7.7 4 Este 8 Este 0 961.8 -- 90
2020-11-18 05:00:00 8.3 4 Nordeste 14 Este 0 961.4 -- 87
2020-11-18 04:00:00 7.8 11 Este 13 Este 0 961.5 -- 91
2020-11-18 03:00:00 8.1 6 Este 8 Este 0 961.5 -- 92
2020-11-18 02:00:00 7.9 6 Este 10 Este 0 961.7 -- 93
2020-11-18 01:00:00 8.7 7 Este 13 Este 0 962 -- 90
2020-11-18 00:00:00 8.8 8 Este 12 Este 0 962.2 -- 89
2020-11-17 23:00:00 9.5 7 Este 10 Este 0 962.2 -- 88
2020-11-17 22:00:00 8.9 7 Este 10 Este 0 962.1 -- 90
2020-11-17 21:00:00 9.3 8 Nordeste 10 Nordeste 0 961.6 -- 88
2020-11-17 20:00:00 9.4 6 Este 10 Este 0 961.6 -- 87
2020-11-17 19:00:00 9.9 6 Este 8 Este 0 961.4 -- 82
2020-11-17 18:00:00 11.5 4 Sudeste 8 Sur 0 961.1 -- 75
2020-11-17 17:00:00 13.5 4 Sur 10 Sudeste 0 961 -- 67
2020-11-17 16:00:00 14.5 5 Sudeste 10 Sudeste 0 960.7 -- 65
2020-11-17 15:00:00 15.2 4 Sur 10 Sudeste 0 960.8 -- 62
2020-11-17 14:00:00 15.3 6 Sudeste 12 Sur 0 961.2 -- 62
2020-11-17 13:00:00 14.5 7 Sudeste 13 Sudeste 0 961.7 -- 64
2020-11-17 12:00:00 13.7 5 Sudeste 12 Sur 0 962 -- 65
2020-11-17 11:00:00 12 6 Sudeste 10 Sudeste 0 961.9 -- 74
2020-11-17 10:00:00 8.8 5 Sudeste 8 Sudeste 0 961.7 -- 89
2020-11-17 09:00:00 6.9 2 Sur 5 Oeste 0 961 -- 95
2020-11-17 08:00:00 6.5 3 Oeste 6 Noroeste 0 960.5 -- 95
2020-11-17 07:00:00 6.1 3 Norte 6 Noroeste 0 960.1 -- 95
2020-11-17 06:00:00 5.5 3 Este 5 Nordeste 0 960.3 -- 95
2020-11-17 05:00:00 5.8 2 Norte 6 Nordeste 0 960.1 -- 94
2020-11-17 04:00:00 5.8 5 Este 7 Este 0 960 -- 93
2020-11-17 03:00:00 6 5 Nordeste 7 Este 0 959.9 -- 92
2020-11-17 02:00:00 6.2 4 Noroeste 6 Sudeste 0 960.1 -- 93
2020-11-17 01:00:00 5.9 4 Sudeste 9 Este 0 960.2 -- 92
2020-11-17 00:00:00 6.2 4 Este 7 Noroeste 0 960.2 -- 88
2020-11-16 23:00:00 6.8 3 Sudoeste 6 Sudoeste 0 960.2 -- 84
2020-11-16 22:00:00 8.3 5 Oeste 11 Noroeste 0 959.8 -- 78
2020-11-16 21:00:00 9.1 6 Oeste 12 Oeste 0 959.1 -- 74
2020-11-16 20:00:00 9.8 6 Oeste 13 Noroeste 0 958.6 -- 72
2020-11-16 19:00:00 10.7 7 Oeste 16 Oeste 0 958.4 -- 69
2020-11-16 18:00:00 11.7 6 Oeste 19 Noroeste 0 957.9 -- 66
2020-11-16 17:00:00 13.5 9 Oeste 27 Oeste 0 957.5 -- 61
2020-11-16 16:00:00 15.4 12 Oeste 31 Sudoeste 0 957.1 -- 53
2020-11-16 15:00:00 16.1 11 Oeste 26 Oeste 0 957 -- 53
2020-11-16 14:00:00 17.1 8 Oeste 25 Oeste 0 956.7 -- 48
2020-11-16 13:00:00 17 9 Oeste 26 Oeste 0 957 -- 51
2020-11-16 12:00:00 16 9 Oeste 23 Oeste 0 957.2 -- 57
2020-11-16 11:00:00 14.1 7 Oeste 23 Noroeste 0 957 -- 74
2020-11-16 10:00:00 10.2 6 Oeste 20 Oeste 0 956.9 -- 94
2020-11-16 09:00:00 8.9 4 Noroeste 20 Oeste 0 956.3 -- 97
2020-11-16 08:00:00 8.6 8 Oeste 19 Oeste 0 955.4 -- 97
2020-11-16 07:00:00 9.2 6 Oeste 21 Oeste 0 955.2 -- 97
2020-11-16 06:00:00 10.5 10 Oeste 20 Oeste 0 955.1 -- 97
2020-11-16 05:00:00 11.9 9 Sudoeste 15 Oeste 0 954.8 -- 98
2020-11-16 04:00:00 12.6 4 Oeste 9 Noroeste 0.2 954.7 -- 95
2020-11-16 03:00:00 12.9 4 Oeste 10 Oeste 0 954.5 -- 93
2020-11-16 02:00:00 13.2 4 Oeste 7 Oeste 0 954.4 -- 91
2020-11-16 01:00:00 13.5 2 Noroeste 7 Sur 0 954.7 -- 91
2020-11-16 00:00:00 13.6 3 Sudoeste 7 Sur 0 954.8 -- 89
2020-11-15 23:00:00 13.7 5 Este 6 Este 0 954.4 -- 86
2020-11-15 22:00:00 14.1 5 Este 8 Este 0 954.2 -- 83
2020-11-15 21:00:00 14.1 5 Este 9 Este 0 954.1 -- 82
2020-11-15 20:00:00 14.4 5 Este 7 Este 0 953.7 -- 80
2020-11-15 19:00:00 15 3 Este 8 Nordeste 0 953.6 -- 77
2020-11-15 18:00:00 15.4 4 Nordeste 7 Nordeste 0 953.3 -- 76
2020-11-15 17:00:00 16.2 2 Norte 8 Noroeste 0 953.3 -- 74
2020-11-15 16:00:00 16.6 4 Oeste 12 Sudoeste 0 953.4 -- 72
2020-11-15 15:00:00 16.9 6 Oeste 14 Oeste 0 953.5 -- 69
2020-11-15 14:00:00 16.2 3 Oeste 15 Sudoeste 0 953.8 -- 73
2020-11-15 13:00:00 16.8 7 Oeste 20 Oeste 0 954 -- 67
2020-11-15 12:00:00 15.3 3 Noroeste 9 Sudoeste 0 954.8 -- 73
2020-11-15 11:00:00 14.2 4 Sudoeste 6 Sudoeste 0 955 -- 78
2020-11-15 10:00:00 11.6 3 Sur 12 Este 0 955.1 -- 89
2020-11-15 09:00:00 9.6 5 Este 11 Este 0 954.7 -- 93
2020-11-15 08:00:00 8.8 5 Nordeste 7 Nordeste 0 954.4 -- 96
2020-11-15 07:00:00 9.3 3 Noroeste 6 Este 0 954.7 -- 94
2020-11-15 06:00:00 9.8 6 Este 10 Nordeste 0 954.3 -- 91
2020-11-15 05:00:00 9.5 5 Este 7 Este 0 954.1 -- 95
2020-11-15 04:00:00 10 7 Este 9 Este 0 954.3 -- 91
2020-11-15 03:00:00 11.3 6 Nordeste 9 Nordeste 0 954.7 -- 89
2020-11-15 02:00:00 11.6 5 Este 8 Este 0 955 -- 90
2020-11-15 01:00:00 11.5 5 Este 10 Sudeste 0 955.4 -- 91
2020-11-15 00:00:00 11.6 8 Sudeste 10 Sudeste 0 955.5 -- 91
2020-11-14 23:00:00 11.8 6 Este 8 Nordeste 0 955.7 -- 90
2020-11-14 22:00:00 11.9 5 Nordeste 9 Nordeste 0 956 -- 89
2020-11-14 21:00:00 11.4 5 Este 10 Nordeste 0 955.6 -- 92
2020-11-14 20:00:00 11.6 3 Nordeste 5 Sudoeste 0 955.8 -- 91
2020-11-14 19:00:00 12.3 2 Oeste 5 Sudoeste 0 955.5 -- 86
2020-11-14 18:00:00 13.4 2 Sudoeste 10 Sudeste 0 955.1 -- 81
2020-11-14 17:00:00 14.5 6 Sudeste 12 Sudeste 0 955 -- 73
2020-11-14 16:00:00 15.3 7 Sudeste 16 Sur 0 955 -- 69
2020-11-14 15:00:00 15.4 12 Este 18 Este 0 955.3 -- 69
2020-11-14 14:00:00 15.4 11 Sudeste 18 Sudeste 0 955.8 -- 69
2020-11-14 13:00:00 14.4 12 Este 19 Sudeste 0 956.2 -- 73
2020-11-14 12:00:00 14.2 12 Sudeste 20 Este 0 956.9 -- 75
2020-11-14 11:00:00 12.5 11 Este 18 Este 0 957 -- 78
2020-11-14 10:00:00 9.1 5 Este 11 Este 0 956.9 -- 90
2020-11-14 09:00:00 7.3 8 Este 12 Este 0 956.9 -- 92
2020-11-14 08:00:00 5.2 6 Sudeste 11 Este 0 956.3 -- 95
2020-11-14 07:00:00 5.6 9 Este 13 Este 0 955.9 -- 94
2020-11-14 06:00:00 6.5 10 Este 14 Este 0 955.7 -- 92
2020-11-14 05:00:00 6.6 7 Este 9 Este 0 955.9 -- 95
2020-11-14 04:00:00 7 6 Este 13 Este 0 956.2 -- 93
2020-11-14 03:00:00 7.9 6 Este 17 Este 0 956.6 -- 89
2020-11-14 02:00:00 7.8 10 Este 15 Este 0 956.8 -- 92
2020-11-14 01:00:00 7.1 8 Este 14 Este 0 957.3 -- 98
2020-11-14 00:00:00 6.9 8 Este 12 Este 0 957.3 -- 99
2020-11-13 23:00:00 7.4 8 Este 12 Este 0 957.3 -- 98
2020-11-13 22:00:00 7.5 8 Este 11 Este 0 957.2 -- 99
2020-11-13 21:00:00 7.7 9 Este 12 Este 0 956.9 -- 98
2020-11-13 20:00:00 8.3 8 Este 11 Este 0 956.7 -- 97
2020-11-13 19:00:00 8.7 8 Este 9 Este 0 956.3 -- 95
2020-11-13 18:00:00 10.1 0 Calma 9 Oeste 0 956.1 -- 90
2020-11-13 17:00:00 12.1 3 Oeste 11 Oeste 0 956 -- 85
2020-11-13 16:00:00 13.7 3 Sur 9 Sudeste 0 955.8 -- 77
2020-11-13 15:00:00 13.8 4 Sur 10 Sur 0 955.9 -- 75
2020-11-13 14:00:00 13.5 4 Sur 11 Sudeste 0 956.3 -- 78
2020-11-13 13:00:00 11.6 4 Sur 13 Sudeste 0 957 -- 91
2020-11-13 12:00:00 10.2 7 Sudeste 13 Sudeste 0 957.4 -- 100
2020-11-13 11:00:00 9.6 3 Este 20 Sudeste 0 957.5 -- 100
2020-11-13 10:00:00 9.2 9 Sudeste 14 Este 0 957.4 -- 100
2020-11-13 09:00:00 8.2 12 Este 18 Este 0 957 -- 100
2020-11-13 08:00:00 7.3 3 Norte 7 Este 0 956.8 -- 100
2020-11-13 07:00:00 6.5 6 Sudeste 10 Sudeste 0 956.4 -- 100
2020-11-13 06:00:00 5.8 0 Calma 8 Sur 0 956.4 -- 98
2020-11-13 05:00:00 6.6 6 Sur 10 Sudeste 0 956.2 -- 99
2020-11-13 04:00:00 6.8 2 Sudeste 11 Este 0 956.2 -- 99
2020-11-13 03:00:00 6.7 7 Este 8 Este 0 956.6 -- 99
2020-11-13 02:00:00 6.7 6 Este 9 Este 0 956.8 -- 100
2020-11-13 01:00:00 6.4 4 Noroeste 9 Este 0 957.5 -- 100
2020-11-13 00:00:00 5.8 0 Calma 11 Nordeste 0 957.6 -- 100
2020-11-12 23:00:00 6.3 9 Este 15 Este 0 957.6 -- 99
2020-11-12 22:00:00 7 7 Sudeste 14 Sudeste 0 957.7 -- 99
2020-11-12 21:00:00 7.4 8 Este 19 Nordeste 0 957.3 -- 99
2020-11-12 20:00:00 7.8 5 Sudeste 11 Este 0 957.6 -- 98
2020-11-12 19:00:00 8.2 5 Este 9 Sudeste 0 957.5 -- 98
2020-11-12 18:00:00 9 0 Calma 9 Sudeste 0 957.2 -- 94
2020-11-12 17:00:00 10.5 6 Sudeste 15 Sudeste 0 957.1 -- 89
2020-11-12 16:00:00 11.2 7 Sudeste 12 Sudeste 0 957.3 -- 88
2020-11-12 15:00:00 10.2 3 Sudeste 6 Este 0 957.4 -- 92
2020-11-12 14:00:00 9.7 4 Sudoeste 9 Sur 0 957.9 -- 95
2020-11-12 13:00:00 9.6 4 Sudoeste 8 Oeste 0 958.3 -- 96
2020-11-12 12:00:00 9.6 3 Sudoeste 8 Oeste 0 959 -- 94
2020-11-12 11:00:00 9.6 2 Este 8 Sudeste 0 959.1 -- 93
2020-11-12 10:00:00 7.5 4 Este 6 Este 0 959 -- 100
2020-11-12 09:00:00 6.1 3 Nordeste 8 Oeste 0 958.6 -- 99
2020-11-12 08:00:00 5.9 4 Oeste 9 Oeste 0 958.3 -- 98
2020-11-12 07:00:00 7.1 4 Noroeste 5 Noroeste 0 957.7 -- 99
2020-11-12 06:00:00 7.1 3 Nordeste 8 Noroeste 0 957.5 -- 98
2020-11-12 05:00:00 7.4 4 Noroeste 9 Noroeste 0 957.8 -- 98
2020-11-12 04:00:00 7.1 4 Oeste 6 Oeste 0 957.8 -- 96
2020-11-12 03:00:00 8.3 3 Oeste 5 Oeste 0 958.3 -- 92
2020-11-12 02:00:00 9 2 Nordeste 8 Nordeste 0 958.3 -- 90
2020-11-12 01:00:00 9.2 6 Nordeste 10 Nordeste 0 958.6 -- 89
2020-11-12 00:00:00 9.4 5 Nordeste 10 Nordeste 0 958.4 -- 88
2020-11-11 23:00:00 8.7 7 Nordeste 12 Nordeste 0 958.5 -- 98
2020-11-11 22:00:00 7.6 6 Nordeste 8 Nordeste 0 958.5 -- 99
2020-11-11 21:00:00 7.5 2 Este 6 Este 0 958.4 -- 97
2020-11-11 20:00:00 8.1 6 Sudeste 8 Este 0 958.3 -- 98
2020-11-11 19:00:00 8.3 4 Noroeste 8 Noroeste 0 958.1 -- 96
2020-11-11 18:00:00 8.8 3 Noroeste 9 Sudoeste 0 958 -- 95
2020-11-11 17:00:00 12.6 5 Sudoeste 9 Sudoeste 0 958 -- 84
2020-11-11 16:00:00 13.7 3 Sudoeste 11 Oeste 0 958 -- 81
2020-11-11 15:00:00 14.1 3 Sudoeste 11 Oeste 0 958.3 -- 78
2020-11-11 14:00:00 13.3 4 Oeste 12 Sudoeste 0 959 -- 82
2020-11-11 13:00:00 11.9 5 Oeste 10 Sudoeste 0 959.4 -- 87
2020-11-11 12:00:00 11.3 5 Sudoeste 10 Sudoeste 0 960.1 -- 88
2020-11-11 11:00:00 11.3 4 Sur 10 Nordeste 0 960.5 -- 88
2020-11-11 10:00:00 8.4 4 Este 7 Este 0 960.8 -- 100
2020-11-11 09:00:00 5.9 0 Calma 6 Este 0 961 -- 100
2020-11-11 08:00:00 4.4 3 Nordeste 6 Nordeste 0.2 960.8 -- 100
2020-11-11 07:00:00 5.2 0 Calma 7 Norte 0 960.6 -- 99
2020-11-11 06:00:00 6.1 4 Noroeste 9 Nordeste 0 960.7 -- 99
2020-11-11 05:00:00 6.7 6 Nordeste 10 Este 0 960.8 -- 99
2020-11-11 04:00:00 7 7 Este 9 Este 0 961.1 -- 100
2020-11-11 03:00:00 6 4 Nordeste 10 Este 0 961.6 -- 98
2020-11-11 02:00:00 7.3 6 Este 10 Este 0 961.9 -- 100
2020-11-11 01:00:00 7.6 7 Este 11 Este 0 962.2 -- 100
2020-11-11 00:00:00 7.1 8 Este 10 Este 0 962.3 -- 99
2020-11-10 23:00:00 7.1 8 Este 12 Este 0 962.2 -- 99
2020-11-10 22:00:00 6.5 9 Este 11 Este 0 961.7 -- 98
2020-11-10 21:00:00 6.8 5 Sudeste 7 Sudeste 0 961.5 -- 96
2020-11-10 20:00:00 7.7 4 Sudeste 8 Este 0 961.4 -- 94
2020-11-10 19:00:00 9.2 5 Sudeste 10 Sudeste 0 961.1 -- 93
2020-11-10 18:00:00 11.1 3 Sur 5 Sudoeste 0 960.8 -- 86
2020-11-10 17:00:00 12.8 3 Oeste 9 Noroeste 0 960.8 -- 79
2020-11-10 16:00:00 13.7 4 Oeste 11 Noroeste 0 960.6 -- 74
2020-11-10 15:00:00 13.4 3 Oeste 9 Sudoeste 0 960.6 -- 76
2020-11-10 14:00:00 11.8 3 Sudeste 8 Sudeste 0 961 -- 86
2020-11-10 13:00:00 11 4 Sudeste 13 Sudeste 0 961.1 -- 89
2020-11-10 12:00:00 9.7 9 Sudeste 21 Sudeste 0 961.4 -- 99
2020-11-10 11:00:00 8.6 13 Este 19 Sudeste 0 961.3 -- 99
2020-11-10 10:00:00 7.5 11 Este 17 Este 0 961 -- 100
2020-11-10 09:00:00 5.8 9 Este 17 Sudeste 0 960.6 -- 98
2020-11-10 08:00:00 5.8 9 Sudeste 13 Sudeste 0 959.6 -- 97
2020-11-10 07:00:00 6.4 9 Este 10 Este 0 959 -- 96
2020-11-10 06:00:00 6.7 4 Norte 7 Noroeste 0 958.8 -- 97
2020-11-10 05:00:00 6.5 2 Norte 5 Este 0 958.5 -- 97
2020-11-10 04:00:00 6.6 4 Nordeste 6 Nordeste 0 958.3 -- 94
2020-11-10 03:00:00 7.9 5 Oeste 8 Noroeste 0 958.3 -- 93
2020-11-10 02:00:00 8.1 4 Noroeste 8 Noroeste 0 958.2 -- 93
2020-11-10 01:00:00 8.7 5 Oeste 10 Noroeste 0 958.3 -- 91
2020-11-10 00:00:00 9.1 5 Noroeste 11 Oeste 0 958.5 -- 92
2020-11-09 23:00:00 10 5 Oeste 12 Oeste 0 958.5 -- 91
2020-11-09 22:00:00 10.3 4 Noroeste 9 Noroeste 0 958.2 -- 89
2020-11-09 21:00:00 11 4 Oeste 10 Noroeste 0 958 -- 87
2020-11-09 20:00:00 11.7 5 Noroeste 12 Oeste 0 957.9 -- 84
2020-11-09 19:00:00 12.2 4 Oeste 8 Sudoeste 0 957.5 -- 81
2020-11-09 18:00:00 13.8 4 Oeste 10 Noroeste 0 957 -- 74
2020-11-09 17:00:00 14.8 4 Oeste 9 Sudoeste 0 956.8 -- 69
2020-11-09 16:00:00 15.3 3 Oeste 11 Oeste 0 956.8 -- 67
2020-11-09 15:00:00 15.6 4 Oeste 15 Noroeste 0 956.5 -- 64
2020-11-09 14:00:00 16.6 5 Sudoeste 21 Oeste 0 956.7 -- 67
2020-11-09 13:00:00 17.2 7 Sudoeste 15 Oeste 0 956.9 -- 60
2020-11-09 12:00:00 15.9 8 Sudeste 14 Sudeste 0 957.5 -- 62
2020-11-09 11:00:00 13.8 4 Sudeste 9 Sudeste 0 957.9 -- 67
2020-11-09 10:00:00 11 2 Sudeste 10 Este 0 957.7 -- 78
2020-11-09 09:00:00 8 4 Este 6 Este 0 957.6 -- 90
2020-11-09 08:00:00 8.1 3 Noroeste 7 Este 0 956.8 -- 88
2020-11-09 07:00:00 8.7 3 Nordeste 14 Nordeste 0 956.3 -- 84
2020-11-09 06:00:00 9.5 8 Nordeste 15 Nordeste 0 956.1 -- 81
2020-11-09 05:00:00 8.8 6 Nordeste 10 Este 0 956.2 -- 82
2020-11-09 04:00:00 8.8 8 Este 10 Este 0 956.3 -- 82
2020-11-09 03:00:00 9.1 8 Este 13 Este 0 956.5 -- 81
2020-11-09 02:00:00 9.7 7 Este 11 Este 0 956.6 -- 80
2020-11-09 01:00:00 10.2 8 Nordeste 11 Nordeste 0 956.9 -- 78
2020-11-09 00:00:00 10 8 Nordeste 11 Nordeste 0 957.3 -- 77
2020-11-08 23:00:00 9.8 7 Nordeste 12 Nordeste 0 957.3 -- 82
2020-11-08 22:00:00 9.1 7 Nordeste 8 Este 0 957.4 -- 89
2020-11-08 21:00:00 9.8 4 Este 14 Este 0 957.1 -- 90
2020-11-08 20:00:00 11 8 Este 12 Este 0 957 -- 94
2020-11-08 19:00:00 11.4 7 Este 9 Este 0 957 -- 92
2020-11-08 18:00:00 13.1 6 Sudeste 11 Sudeste 0 956.8 -- 83
2020-11-08 17:00:00 14.9 6 Sudeste 14 Sudeste 0 956.7 -- 73
2020-11-08 16:00:00 16.2 7 Sudeste 14 Sudeste 0 956.9 -- 63
2020-11-08 15:00:00 16.2 4 Este 12 Sudeste 0 957.1 -- 63
2020-11-08 14:00:00 16.3 5 Sudeste 10 Sudoeste 0 957.6 -- 62
2020-11-08 13:00:00 14.1 6 Oeste 12 Oeste 0 958.5 -- 88
2020-11-08 12:00:00 15 5 Sudoeste 10 Sudoeste 0 958.8 -- 84
2020-11-08 11:00:00 14.4 6 Este 13 Este 0 958.9 -- 78
2020-11-08 10:00:00 12 8 Este 13 Este 0 958.8 -- 99
2020-11-08 09:00:00 10.5 7 Este 11 Este 0 958.7 -- 100
2020-11-08 08:00:00 9.7 8 Este 11 Este 0 958.5 -- 100
2020-11-08 07:00:00 9.6 5 Este 12 Este 0 958.2 -- 100
2020-11-08 06:00:00 8.8 8 Este 10 Este 0 958.2 -- 99
2020-11-08 05:00:00 8.9 6 Este 10 Este 0 957.9 -- 99
2020-11-08 04:00:00 9.6 8 Este 11 Este 0 957.9 -- 99
2020-11-08 03:00:00 9.9 8 Este 11 Este 0 958.1 -- 99
2020-11-08 02:00:00 10.3 8 Este 10 Este 0 958.2 -- 98
2020-11-08 01:00:00 10.7 5 Este 10 Este 0 958.4 -- 98
2020-11-08 00:00:00 11.3 8 Este 13 Este 0 957.9 -- 97
2020-11-07 23:00:00 11.6 9 Este 14 Este 0 957.8 -- 98
2020-11-07 22:00:00 11.6 7 Sudeste 13 Este 0.2 957.4 -- 98
2020-11-07 21:00:00 11.9 9 Sudeste 13 Sudeste 0 957 -- 98
2020-11-07 20:00:00 12.1 8 Este 15 Nordeste 0 956.4 -- 98
2020-11-07 19:00:00 12.3 9 Este 17 Este 0 955.6 -- 97
2020-11-07 18:00:00 12.5 11 Este 19 Este 0 955 -- 97
2020-11-07 17:00:00 12.7 11 Este 25 Este 0.2 954.7 -- 97
2020-11-07 16:00:00 12.9 16 Este 27 Este 0 954.3 -- 95
2020-11-07 15:00:00 13.2 15 Este 24 Este 0 954.2 -- 95
2020-11-07 14:00:00 13.5 12 Sudeste 19 Sudeste 0 953.9 -- 95
2020-11-07 13:00:00 13.1 11 Sudeste 17 Sudeste 0.2 953.6 -- 96
2020-11-07 12:00:00 12.7 7 Sudeste 17 Nordeste 0.4 953.5 -- 96
2020-11-07 11:00:00 11.5 6 Nordeste 18 Nordeste 4.6 953 -- 97
2020-11-07 10:00:00 11.4 9 Oeste 43 Este 14.8 953.5 -- 94
2020-11-07 09:00:00 13.3 27 Este 49 Este 2.8 952 -- 93
2020-11-07 08:00:00 13.8 28 Este 55 Sudeste 0.4 951.1 -- 85
2020-11-07 07:00:00 13.8 28 Este 50 Este 0.2 951.5 -- 84
2020-11-07 06:00:00 13.7 22 Sudeste 39 Este 0.2 952.8 -- 85
2020-11-07 05:00:00 14.7 23 Este 45 Este 0 952.7 -- 75
2020-11-07 04:00:00 14.7 25 Este 44 Este 0 952.5 -- 76
2020-11-07 03:00:00 14.6 27 Este 42 Este 0 953.4 -- 77
2020-11-07 02:00:00 15.1 29 Este 43 Este 0 954.5 -- 74
2020-11-07 01:00:00 15.3 20 Este 44 Este 0 955.6 -- 73
2020-11-07 00:00:00 15.3 30 Este 46 Sudeste 0 954.9 -- 74
2020-11-06 23:00:00 15.4 23 Este 43 Este 0 955.7 -- 73
2020-11-06 22:00:00 15.4 24 Este 45 Este 0 956.1 -- 74
2020-11-06 21:00:00 15.6 25 Este 39 Este 0 956.2 -- 73
2020-11-06 20:00:00 15.7 21 Este 35 Este 0 956.6 -- 73
2020-11-06 19:00:00 15.8 23 Este 39 Sudeste 0 956.6 -- 72
2020-11-06 18:00:00 15.8 23 Este 42 Este 0 956.5 -- 72
2020-11-06 17:00:00 16.2 24 Este 44 Sudeste 0 956.9 -- 71
2020-11-06 16:00:00 16.3 24 Este 43 Sudeste 0 957.1 -- 71
2020-11-06 15:00:00 16.5 27 Sudeste 46 Sudeste 0 957.6 -- 71
2020-11-06 14:00:00 16.4 22 Este 42 Nordeste 0 958.1 -- 69
2020-11-06 13:00:00 16.2 25 Este 39 Este 0 958.5 -- 70
2020-11-06 12:00:00 15.6 26 Este 40 Sudeste 0 959.6 -- 72
2020-11-06 11:00:00 15.8 23 Este 40 Este 0 960 0.6 73
2020-11-06 10:00:00 14.7 20 Este 31 Sudeste 0 960.2 -- 75
2020-11-06 09:00:00 13.8 18 Este 28 Este 0 959.7 -- 78
2020-11-06 08:00:00 13.3 19 Este 32 Este 0 959.4 -- 79
2020-11-06 07:00:00 13.2 19 Este 32 Este 0 958.9 -- 80
2020-11-06 06:00:00 12.8 18 Este 33 Este 0 958.8 -- 83
2020-11-06 05:00:00 12.9 19 Este 36 Este 0 958.7 -- 82
2020-11-06 04:00:00 13.1 22 Este 43 Este 0 958.5 -- 82
2020-11-06 03:00:00 12.8 24 Este 41 Este 0 958.7 -- 82
2020-11-06 02:00:00 12.6 25 Este 39 Este 0 958.9 -- 82
2020-11-06 01:00:00 11.9 21 Este 38 Este 0 959.1 -- 88
2020-11-06 00:00:00 12.3 22 Este 35 Sudeste 0.4 959.3 -- 86
2020-11-05 23:00:00 13.5 19 Este 30 Este 0 959.5 -- 75
2020-11-05 22:00:00 13.2 17 Este 34 Este 0 959.5 -- 77
2020-11-05 21:00:00 12.8 16 Este 33 Este 0 959.5 -- 82
2020-11-05 20:00:00 12.6 15 Este 25 Este 0 959.5 -- 84
2020-11-05 19:00:00 11.9 12 Este 24 Este 0 959.5 -- 86
2020-11-05 18:00:00 12.4 7 Sudeste 18 Sudeste 0 959.8 -- 80
2020-11-05 17:00:00 13.7 12 Sudeste 26 Sudeste 0 959.5 -- 74
2020-11-05 16:00:00 14.9 13 Sudeste 25 Sudeste 0 959.7 -- 68
2020-11-05 15:00:00 14.8 13 Sudeste 24 Sudeste 0 960 -- 69
2020-11-05 14:00:00 15.5 14 Sudeste 27 Este 0 960.6 -- 67
2020-11-05 13:00:00 14.1 13 Este 19 Sudeste 0 961 -- 68
2020-11-05 12:00:00 11.1 8 Este 14 Este 0 961.9 -- 88
2020-11-05 11:00:00 9 5 Sudeste 16 Sudeste 0 962.3 -- 98
2020-11-05 10:00:00 7.9 11 Sudeste 16 Este 0 961.7 -- 99
2020-11-05 09:00:00 7.4 6 Este 11 Sudeste 0 961.2 -- 99
2020-11-05 08:00:00 6.9 8 Este 11 Este 0 960.7 -- 98
2020-11-05 07:00:00 7.8 4 Sudeste 10 Sudeste 0 960.8 -- 97
2020-11-05 06:00:00 8.5 7 Sudeste 9 Sudeste 0 960.5 -- 98
2020-11-05 05:00:00 8.4 5 Este 9 Nordeste 0 960.4 -- 99
2020-11-05 04:00:00 8.1 5 Este 7 Este 0 961 -- 98
2020-11-05 03:00:00 8.2 0 Calma 10 Sudeste 0 961 -- 98
2020-11-05 02:00:00 8.1 6 Sudeste 8 Sudeste 0 960.3 -- 96
2020-11-05 01:00:00 8.9 4 Nordeste 11 Este 0 960.3 -- 95
2020-11-05 00:00:00 8.5 8 Nordeste 12 Este 0 960.3 -- 99
2020-11-04 23:00:00 8.1 6 Nordeste 10 Nordeste 0 960.2 -- 99
2020-11-04 22:00:00 7.8 3 Oeste 6 Oeste 0 960.3 -- 98
2020-11-04 21:00:00 7.8 4 Oeste 6 Oeste 0 959.4 -- 98
2020-11-04 20:00:00 7.8 3 Oeste 6 Noroeste 0 958.7 -- 98
2020-11-04 19:00:00 8 3 Noroeste 7 Oeste 0 958 -- 97
2020-11-04 18:00:00 8.6 2 Este 6 Sudeste 0 957.7 -- 96
2020-11-04 17:00:00 8.7 4 Este 10 Sudeste 0 957.8 -- 95
2020-11-04 16:00:00 8.7 7 Sudeste 15 Sudeste 0 957.8 -- 95
2020-11-04 15:00:00 8.7 8 Sudeste 15 Sudeste 0 957.5 -- 95
2020-11-04 14:00:00 8.1 5 Sudeste 13 Este 0 958 -- 95
2020-11-04 13:00:00 7.9 8 Sudeste 17 Este 0 958.1 -- 97
2020-11-04 12:00:00 7.3 5 Sudeste 12 Sudeste 0.8 958.8 -- 97
2020-11-04 11:00:00 6.6 8 Sudeste 18 Sudeste 0 958.8 1.5 97
2020-11-04 10:00:00 6.6 10 Sudeste 20 Sudeste 0.2 958.5 -- 98
2020-11-04 09:00:00 6.2 12 Sudeste 18 Sudeste 0.2 957.7 -- 98
2020-11-04 08:00:00 6.2 11 Este 17 Este 0.4 957.3 -- 97
2020-11-04 07:00:00 6.4 11 Este 19 Este 0.4 957.3 -- 97
2020-11-04 06:00:00 6.8 11 Este 17 Este 0 957.3 -- 95
2020-11-04 05:00:00 7.5 9 Este 14 Este 0 957.5 -- 94
2020-11-04 04:00:00 8.1 5 Este 10 Sudeste 0.2 957.7 -- 94
2020-11-04 03:00:00 8.6 5 Este 12 Este 0 958.2 -- 93
2020-11-04 02:00:00 8.7 0 Calma 7 Este 0 958.6 -- 89
2020-11-04 01:00:00 8.9 3 Nordeste 10 Sudoeste 0 959 -- 85
2020-11-04 00:00:00 9.5 4 Sudoeste 8 Oeste 0 959.5 -- 85
2020-11-03 23:00:00 9.6 3 Oeste 10 Oeste 0 959.8 -- 82
2020-11-03 22:00:00 9.7 6 Oeste 14 Oeste 0 960.1 -- 80
2020-11-03 21:00:00 10 6 Oeste 11 Oeste 0 960.1 -- 80
2020-11-03 20:00:00 10.5 5 Oeste 14 Oeste 0 960.1 -- 79
2020-11-03 19:00:00 11 5 Oeste 16 Oeste 0 960.2 -- 83
2020-11-03 18:00:00 11.6 5 Oeste 13 Noroeste 0 959.9 -- 82
2020-11-03 17:00:00 11.9 6 Oeste 15 Sudoeste 0 959.9 -- 85
2020-11-03 16:00:00 12.5 8 Oeste 15 Oeste 0 959.9 -- 86
2020-11-03 15:00:00 13.1 5 Oeste 14 Oeste 0 959.9 -- 83
2020-11-03 14:00:00 13.4 4 Noroeste 16 Oeste 0 960.4 -- 92
2020-11-03 13:00:00 12.2 7 Oeste 15 Oeste 0.4 960.7 -- 95
2020-11-03 12:00:00 12.9 6 Noroeste 12 Noroeste 0 961 -- 90
2020-11-03 11:00:00 13.5 5 Oeste 11 Oeste 0 960.8 -- 85
2020-11-03 10:00:00 11.9 4 Oeste 11 Oeste 0 960.4 -- 89
2020-11-03 09:00:00 12.4 4 Este 10 Nordeste 0 959.9 -- 94
2020-11-03 08:00:00 10.9 7 Noroeste 12 Noroeste 0 959.2 -- 92
2020-11-03 07:00:00 11.8 2 Oeste 8 Oeste 0 958.7 -- 89
2020-11-03 06:00:00 12.6 0 Calma 11 Oeste 0 958.4 -- 87
2020-11-03 05:00:00 12.8 5 Oeste 12 Oeste 0 958.1 -- 87
2020-11-03 04:00:00 13.5 6 Oeste 11 Oeste 0 958 -- 82
2020-11-03 03:00:00 13.7 3 Norte 12 Noroeste 0 958 -- 80
2020-11-03 02:00:00 13.3 4 Noroeste 10 Oeste 0 957.8 -- 81
2020-11-03 01:00:00 14.2 4 Sudoeste 10 Sudoeste 0 958 -- 77
2020-11-03 00:00:00 14.1 3 Este 8 Noroeste 0 957.7 -- 77
2020-11-02 23:00:00 15.3 5 Noroeste 8 Norte 0 957.8 -- 73
2020-11-02 22:00:00 15.7 4 Noroeste 9 Noroeste 0 957.7 -- 73
2020-11-02 21:00:00 15.7 6 Oeste 9 Sudoeste 0 957.4 -- 72
2020-11-02 20:00:00 16.3 5 Sudoeste 12 Sudoeste 0 957.2 -- 69
2020-11-02 19:00:00 17.8 4 Oeste 9 Oeste 0 956.8 -- 64
2020-11-02 18:00:00 19.7 5 Oeste 13 Oeste 0 956.2 -- 56
2020-11-02 17:00:00 21.5 7 Oeste 15 Sudoeste 0 956.1 -- 48
2020-11-02 16:00:00 22.5 5 Oeste 12 Oeste 0 956.2 -- 45
2020-11-02 15:00:00 22.3 4 Oeste 12 Oeste 0 956.4 -- 45
2020-11-02 14:00:00 22.7 5 Oeste 13 Sudoeste 0 956.9 -- 45
2020-11-02 13:00:00 21.9 5 Oeste 13 Sur 0 957.6 -- 46
2020-11-02 12:00:00 21.5 5 Sur 11 Sur 0 958.2 -- 47
2020-11-02 11:00:00 18.4 2 Nordeste 8 Oeste 0 958.3 -- 59
2020-11-02 10:00:00 15.7 5 Noroeste 7 Noroeste 0 958.1 -- 68
2020-11-02 09:00:00 13 3 Sudoeste 6 Sudoeste 0 957.9 -- 75
2020-11-02 08:00:00 11.6 4 Sur 7 Nordeste 0 957.4 -- 81
2020-11-02 07:00:00 11.7 3 Norte 9 Nordeste 0 957.1 -- 80
2020-11-02 06:00:00 12.2 3 Noroeste 10 Noroeste 0 957.3 -- 79
2020-11-02 05:00:00 13.6 6 Noroeste 10 Nordeste 0 957.2 -- 73
2020-11-02 04:00:00 14.4 7 Nordeste 14 Nordeste 0 957.2 -- 69
2020-11-02 03:00:00 14.4 9 Nordeste 14 Nordeste 0 957.7 -- 69
2020-11-02 02:00:00 14.6 9 Nordeste 14 Nordeste 0 957.9 -- 69
2020-11-02 01:00:00 14.4 10 Nordeste 14 Nordeste 0 958.3 -- 70
2020-11-02 00:00:00 13.7 7 Este 13 Este 0 958.7 -- 74
2020-11-01 23:00:00 13.8 11 Este 15 Este 0 958.4 -- 74
2020-11-01 22:00:00 13.8 12 Este 14 Sudeste 0 958.2 -- 77
2020-11-01 21:00:00 15.5 5 Nordeste 10 Este 0 957.9 -- 70
2020-11-01 20:00:00 15.4 4 Nordeste 8 Este 0 957.9 -- 70
2020-11-01 19:00:00 17.3 2 Oeste 9 Noroeste 0 957.8 -- 64
2020-11-01 18:00:00 18.5 4 Noroeste 10 Noroeste 0 957.4 -- 58
2020-11-01 17:00:00 20.4 5 Oeste 18 Oeste 0 957.5 -- 52
2020-11-01 16:00:00 21.8 7 Oeste 22 Sudoeste 0 957.5 -- 45
2020-11-01 15:00:00 22.5 9 Oeste 22 Oeste 0 957.9 -- 43
2020-11-01 14:00:00 21.3 8 Oeste 17 Sudoeste 0 958.1 -- 47
2020-11-01 13:00:00 19.8 6 Oeste 19 Oeste 0 958.8 -- 48
2020-11-01 12:00:00 18 10 Sudoeste 18 Oeste 0 959.2 -- 54
2020-11-01 11:00:00 16.6 8 Oeste 14 Sudoeste 0 959.5 -- 58
2020-11-01 10:00:00 14.4 4 Sudoeste 9 Oeste 0 959.6 -- 65
2020-11-01 09:00:00 11.7 2 Oeste 5 Noroeste 0 959.3 -- 72
2020-11-01 08:00:00 10.1 2 Este 6 Este 0 959 -- 75
2020-11-01 07:00:00 9.8 6 Este 9 Este 0 958.6 -- 77
2020-11-01 06:00:00 9.5 5 Este 6 Este 0 958.8 -- 82
2020-11-01 05:00:00 10.1 5 Este 9 Este 0 958.5 -- 79
2020-11-01 04:00:00 10.9 8 Este 13 Este 0 958.8 -- 73
2020-11-01 03:00:00 11.9 8 Este 10 Nordeste 0 959.3 -- 71
2020-11-01 02:00:00 12 7 Nordeste 11 Este 0 959.5 -- 75
2020-11-01 01:00:00 12.1 7 Este 11 Este 0 959.5 -- 73
2020-11-01 00:00:00 12.2 9 Este 13 Este 0 959.3 -- 71
2020-10-31 23:00:00 12.6 7 Nordeste 12 Este 0 959 -- 69
2020-10-31 22:00:00 13.4 5 Oeste 9 Noroeste 0 959 -- 71
2020-10-31 21:00:00 14.1 5 Noroeste 8 Noroeste 0 958.6 -- 66
2020-10-31 20:00:00 14.8 4 Oeste 9 Sudoeste 0 958.6 -- 64
2020-10-31 19:00:00 16.6 6 Oeste 11 Oeste 0 958.1 -- 59
2020-10-31 18:00:00 18.3 6 Oeste 16 Oeste 0 957.9 -- 55
2020-10-31 17:00:00 20.4 6 Oeste 19 Oeste 0 958.2 -- 49
2020-10-31 16:00:00 21.4 7 Oeste 16 Oeste 0 957.9 -- 43
2020-10-31 15:00:00 21.2 8 Sudoeste 18 Sudoeste 0 958.1 -- 44
2020-10-31 14:00:00 21.3 6 Oeste 19 Oeste 0 958.9 -- 43
2020-10-31 13:00:00 20.4 9 Oeste 19 Oeste 0 959.6 -- 50
2020-10-31 12:00:00 19.3 6 Oeste 13 Oeste 0 960.3 -- 54
2020-10-31 11:00:00 16.8 4 Noroeste 15 Oeste 0 960.8 -- 59
2020-10-31 10:00:00 14.8 4 Sudoeste 8 Oeste 0 960.6 -- 58
2020-10-31 09:00:00 12.7 3 Noroeste 7 Noroeste 0 960.4 -- 69
2020-10-31 08:00:00 12.2 4 Noroeste 9 Noroeste 0 960.1 -- 65
2020-10-31 07:00:00 11.2 5 Noroeste 9 Noroeste 0 960 -- 70
2020-10-31 06:00:00 10 4 Noroeste 7 Noroeste 0 960.1 -- 77
2020-10-31 05:00:00 9.1 0 Calma 4 Oeste 0 959.8 -- 85
2020-10-31 04:00:00 9.6 0 Calma 4 Este 0 959.8 -- 82
2020-10-31 03:00:00 9.9 3 Nordeste 9 Nordeste 0 960.2 -- 79
2020-10-31 02:00:00 9.9 6 Nordeste 8 Nordeste 0 960.4 -- 80
2020-10-31 01:00:00 9.7 2 Norte 5 Nordeste 0 960.8 -- 83
2020-10-31 00:00:00 10.3 4 Nordeste 6 Nordeste 0 960.8 -- 83
2020-10-30 23:00:00 10.3 5 Nordeste 6 Nordeste 0 960.9 -- 82
2020-10-30 22:00:00 11.4 2 Oeste 6 Nordeste 0 961.1 -- 76
2020-10-30 21:00:00 11.3 5 Nordeste 5 Nordeste 0 960.7 -- 75
2020-10-30 20:00:00 12.8 2 Oeste 3 Oeste 0 960.6 -- 68
2020-10-30 19:00:00 13.8 3 Sur 4 Sudoeste 0 960.3 -- 63
2020-10-30 18:00:00 16 3 Sudoeste 7 Oeste 0 959.9 -- 58
2020-10-30 17:00:00 18.8 4 Sudoeste 11 Sudoeste 0 959.8 -- 50
2020-10-30 16:00:00 20.3 4 Noroeste 12 Oeste 0 959.9 -- 45
2020-10-30 15:00:00 20 5 Oeste 13 Sudoeste 0 960.2 -- 48
2020-10-30 14:00:00 19.9 5 Oeste 13 Oeste 0 960.6 -- 51
2020-10-30 13:00:00 18.8 6 Oeste 13 Noroeste 0 961 -- 54
2020-10-30 12:00:00 17.3 6 Sudoeste 12 Sudoeste 0 961.7 -- 59
2020-10-30 11:00:00 15.4 4 Oeste 10 Sudoeste 0 961.8 -- 66
2020-10-30 10:00:00 13.4 6 Sudoeste 8 Sudoeste 0 961.8 -- 74
2020-10-30 09:00:00 10.2 3 Noroeste 4 Sudoeste 0 961.6 -- 89
2020-10-30 08:00:00 8.3 3 Oeste 5 Oeste 0 961.3 -- 93
2020-10-30 07:00:00 7.8 2 Norte 5 Nordeste 0 961.2 -- 91
2020-10-30 06:00:00 8.5 4 Nordeste 5 Nordeste 0 961.1 -- 92
2020-10-30 05:00:00 8.9 3 Nordeste 5 Sudoeste 0 961.1 -- 90
2020-10-30 04:00:00 9 0 Calma 7 Nordeste 0 961.2 -- 88
2020-10-30 03:00:00 9.7 7 Nordeste 9 Nordeste 0 961.2 -- 84
2020-10-30 02:00:00 9.6 4 Nordeste 6 Nordeste 0 961.3 -- 87
2020-10-30 01:00:00 10.5 4 Noroeste 5 Norte 0 961.4 -- 84
2020-10-30 00:00:00 11.3 3 Norte 9 Nordeste 0 961.6 -- 79
2020-10-29 23:00:00 11.6 6 Nordeste 12 Nordeste 0 961.6 -- 77
2020-10-29 22:00:00 10.9 6 Nordeste 12 Nordeste 0 961.6 -- 82
2020-10-29 21:00:00 11.1 5 Nordeste 8 Nordeste 0 961.3 -- 80
2020-10-29 20:00:00 12.1 2 Noroeste 5 Noroeste 0 961.1 -- 77
2020-10-29 19:00:00 13 3 Oeste 5 Oeste 0 960.7 -- 73
2020-10-29 18:00:00 15.5 3 Sudoeste 12 Sudoeste 0 960.3 -- 64
2020-10-29 17:00:00 17.5 5 Oeste 17 Sudoeste 0 960.1 -- 54
2020-10-29 16:00:00 19 6 Oeste 17 Oeste 0 960 -- 48
2020-10-29 15:00:00 19 7 Oeste 19 Sudoeste 0 960.1 -- 49
2020-10-29 14:00:00 18.4 8 Oeste 17 Noroeste 0 960.6 -- 51
2020-10-29 13:00:00 17 7 Noroeste 14 Sudoeste 0 961.2 -- 54
2020-10-29 12:00:00 15.3 6 Oeste 14 Oeste 0 962 -- 65
2020-10-29 11:00:00 13.7 8 Oeste 13 Sudoeste 0 962 -- 67
2020-10-29 10:00:00 11.6 4 Norte 8 Noroeste 0 961.9 -- 77
2020-10-29 09:00:00 8.5 5 Este 8 Este 0 961.3 -- 92
2020-10-29 08:00:00 8 4 Sudoeste 10 Noroeste 0 960.7 -- 92
2020-10-29 07:00:00 8.7 5 Noroeste 10 Norte 0 960.2 -- 89
2020-10-29 06:00:00 9.1 5 Noroeste 12 Noroeste 0 959.6 -- 86
2020-10-29 05:00:00 9.3 6 Noroeste 14 Noroeste 0 959.2 -- 85
2020-10-29 04:00:00 9.8 4 Noroeste 10 Oeste 0 959.2 -- 83
2020-10-29 03:00:00 10.2 4 Noroeste 10 Noroeste 0 959.1 -- 82
2020-10-29 02:00:00 11.5 5 Noroeste 14 Norte 0 959 -- 76
2020-10-29 01:00:00 11 6 Noroeste 10 Norte 0 959 -- 80
2020-10-29 00:00:00 11.5 3 Noroeste 13 Noroeste 0 958.9 -- 79
2020-10-28 23:00:00 11.7 4 Noroeste 12 Norte 0 958.3 -- 78
2020-10-28 22:00:00 11.7 6 Noroeste 10 Noroeste 0 958 -- 77
2020-10-28 21:00:00 11.7 4 Noroeste 13 Noroeste 0 957.7 -- 77
2020-10-28 20:00:00 12.3 3 Oeste 10 Noroeste 0 957.4 -- 77
2020-10-28 19:00:00 13.4 3 Noroeste 10 Oeste 0 956.7 -- 74
2020-10-28 18:00:00 15.5 2 Oeste 15 Oeste 0 956 -- 66
2020-10-28 17:00:00 17.3 7 Oeste 21 Noroeste 0 955.9 -- 59
2020-10-28 16:00:00 18.6 8 Oeste 21 Oeste 0 955.6 -- 54
2020-10-28 15:00:00 18.7 8 Oeste 22 Noroeste 0 955.5 -- 54
2020-10-28 14:00:00 18.6 6 Oeste 17 Oeste 0 955.7 -- 53
2020-10-28 13:00:00 17.3 6 Oeste 18 Sudoeste 0 956.2 -- 58
2020-10-28 12:00:00 15.7 9 Sudoeste 15 Sudoeste 0 956.7 -- 65
2020-10-28 11:00:00 14.1 4 Oeste 13 Oeste 0 956.4 -- 68
2020-10-28 10:00:00 12.6 5 Sudoeste 13 Oeste 0 956 -- 74
2020-10-28 09:00:00 11.1 4 Noroeste 9 Noroeste 0 955.2 -- 78
2020-10-28 08:00:00 8.9 4 Noroeste 10 Norte 0 954.3 -- 85
2020-10-28 07:00:00 8.2 4 Noroeste 10 Noroeste 0 953.6 -- 88
2020-10-28 06:00:00 7.9 4 Noroeste 9 Oeste 0 953.6 -- 89
2020-10-28 05:00:00 8 4 Noroeste 9 Noroeste 0 953 -- 88
2020-10-28 04:00:00 7.9 2 Oeste 7 Oeste 0 953.1 -- 88
2020-10-28 03:00:00 8.4 3 Oeste 8 Oeste 0 953.1 -- 84
2020-10-28 02:00:00 9 2 Oeste 9 Oeste 0 953.2 -- 80
2020-10-28 01:00:00 10.7 3 Oeste 9 Noroeste 0 953.1 -- 70
2020-10-28 00:00:00 11.1 3 Noroeste 10 Norte 0 953.2 -- 69